DAOB

Details ICAO DAOB (TID)
Name BOU CHEKIF
Region Algeria
Timezone Africa/Algiers (UTC+1.0)
Plans Departing 11
Arriving 11
Stats Elevation 3,245 ft / 989 m (AMSL)
Location 35.341136° 1.463147°
Runways 1
Magnetic Variation 0.680° E
Sunrise 2018-05-20 04:47:53 UTC / 2018-05-20 05:47:53 Local
Sunset 2018-05-20 18:56:18 UTC / 2018-05-20 19:56:18 Local
Advertisement - Login to hide

Runways

ID Width Length Bearing (true) Bearing (mag) Surface Threshold Offset Overrun Length
08 148 ft / 45 m 9,810 ft / 2,990 m 81.23° 80.55° Asphalt 0 ft / 0 m 198 ft / 60 m
26 148 ft / 45 m 9,810 ft / 2,990 m 261.25° 260.57° Asphalt 0 ft / 0 m 198 ft / 60 m

Map

Weather


0- 5 10 15 20 25 30 35+ Temperature / ° C

Clouds and Precipitation
Forecast for 2018-05-20 18:00 UTC. Updated 16 minutes ago

Ground ~20,000 ft ~40,000 ft Winds

METAR

DAOB 201700Z 31008KT 9999 BKN023 15/11 Q1013

TAF

TAF DAOB 201100Z 2012/2112 30010KT 9999 SCT020 PROB30 TEMPO 2012/2018 5000 -RA FEW020CB BECMG 2020/2023 VRB02KT PROB40 TEMPO 2022/2106 3000 BR BKN015 PROB30 TEMPO 2100/2106 0800 FG BKN010

Frequencies

Tower 118.10 MHz TIARET TWR
Tower 119.70 MHz TIARET TWR
Warning: Do not use this data for real-world aviation or navigation. No guarantee of current accuracy is given.